sensor_id;sensor_type;location;lat;lon;timestamp;P1;durP1;ratioP1;P2;durP2;ratioP2
71207;SDS011;58938;49.868;8.646;2023-12-07T00:00:26;18.33;;;8.50;;
71207;SDS011;58938;49.868;8.646;2023-12-07T00:02:52;17.25;;;8.55;;
71207;SDS011;58938;49.868;8.646;2023-12-07T00:05:18;19.52;;;8.93;;
71207;SDS011;58938;49.868;8.646;2023-12-07T00:07:44;17.73;;;9.82;;
71207;SDS011;58938;49.868;8.646;2023-12-07T00:10:10;16.63;;;9.07;;
71207;SDS011;58938;49.868;8.646;2023-12-07T00:12:36;17.73;;;8.95;;
71207;SDS011;58938;49.868;8.646;2023-12-07T00:15:02;16.58;;;8.70;;
71207;SDS011;58938;49.868;8.646;2023-12-07T00:17:28;18.50;;;9.10;;
71207;SDS011;58938;49.868;8.646;2023-12-07T00:19:54;17.25;;;8.68;;
71207;SDS011;58938;49.868;8.646;2023-12-07T00:22:20;18.60;;;9.48;;
71207;SDS011;58938;49.868;8.646;2023-12-07T00:24:47;17.33;;;8.60;;
71207;SDS011;58938;49.868;8.646;2023-12-07T00:27:13;15.95;;;8.80;;
71207;SDS011;58938;49.868;8.646;2023-12-07T00:29:39;16.90;;;8.60;;
71207;SDS011;58938;49.868;8.646;2023-12-07T00:32:05;23.15;;;9.15;;
71207;SDS011;58938;49.868;8.646;2023-12-07T00:34:31;18.35;;;8.57;;
71207;SDS011;58938;49.868;8.646;2023-12-07T00:36:57;17.25;;;8.27;;
71207;SDS011;58938;49.868;8.646;2023-12-07T00:39:23;15.77;;;8.00;;
71207;SDS011;58938;49.868;8.646;2023-12-07T00:41:49;15.88;;;8.25;;
71207;SDS011;58938;49.868;8.646;2023-12-07T00:44:15;18.10;;;9.40;;
71207;SDS011;58938;49.868;8.646;2023-12-07T00:46:41;21.40;;;9.57;;
71207;SDS011;58938;49.868;8.646;2023-12-07T00:49:07;14.83;;;8.17;;
71207;SDS011;58938;49.868;8.646;2023-12-07T00:51:33;18.05;;;8.80;;
71207;SDS011;58938;49.868;8.646;2023-12-07T00:53:59;22.05;;;8.38;;
71207;SDS011;58938;49.868;8.646;2023-12-07T00:56:25;15.63;;;8.53;;
71207;SDS011;58938;49.868;8.646;2023-12-07T00:58:51;15.43;;;8.07;;
71207;SDS011;58938;49.868;8.646;2023-12-07T01:01:17;19.00;;;9.80;;
71207;SDS011;58938;49.868;8.646;2023-12-07T01:03:42;17.48;;;8.85;;
71207;SDS011;58938;49.868;8.646;2023-12-07T01:06:08;15.37;;;8.07;;
71207;SDS011;58938;49.868;8.646;2023-12-07T01:08:37;17.65;;;8.65;;
71207;SDS011;58938;49.868;8.646;2023-12-07T01:11:04;19.02;;;8.45;;
71207;SDS011;58938;49.868;8.646;2023-12-07T01:13:30;16.90;;;8.75;;
71207;SDS011;58938;49.868;8.646;2023-12-07T01:15:56;20.93;;;9.53;;
71207;SDS011;58938;49.868;8.646;2023-12-07T01:18:22;17.55;;;8.35;;
71207;SDS011;58938;49.868;8.646;2023-12-07T01:20:48;16.27;;;8.98;;
71207;SDS011;58938;49.868;8.646;2023-12-07T01:23:14;17.20;;;8.30;;
71207;SDS011;58938;49.868;8.646;2023-12-07T01:25:40;19.25;;;9.00;;
71207;SDS011;58938;49.868;8.646;2023-12-07T01:28:06;16.77;;;8.70;;
71207;SDS011;58938;49.868;8.646;2023-12-07T01:30:32;15.13;;;8.10;;
71207;SDS011;58938;49.868;8.646;2023-12-07T01:32:58;17.08;;;8.82;;
71207;SDS011;58938;49.868;8.646;2023-12-07T01:35:24;15.30;;;8.68;;
71207;SDS011;58938;49.868;8.646;2023-12-07T01:37:50;16.13;;;8.47;;
71207;SDS011;58938;49.868;8.646;2023-12-07T01:40:16;20.25;;;8.80;;
71207;SDS011;58938;49.868;8.646;2023-12-07T01:42:49;16.80;;;8.60;;
71207;SDS011;58938;49.868;8.646;2023-12-07T01:45:16;16.38;;;8.10;;
71207;SDS011;58938;49.868;8.646;2023-12-07T01:47:42;15.07;;;7.50;;
71207;SDS011;58938;49.868;8.646;2023-12-07T01:50:08;16.88;;;7.75;;
71207;SDS011;58938;49.868;8.646;2023-12-07T01:52:35;15.30;;;8.40;;
71207;SDS011;58938;49.868;8.646;2023-12-07T01:55:04;14.30;;;7.60;;
71207;SDS011;58938;49.868;8.646;2023-12-07T01:57:32;17.45;;;8.70;;
71207;SDS011;58938;49.868;8.646;2023-12-07T01:59:58;19.70;;;8.53;;
71207;SDS011;58938;49.868;8.646;2023-12-07T02:02:24;17.75;;;8.38;;
71207;SDS011;58938;49.868;8.646;2023-12-07T02:04:50;16.67;;;9.10;;
71207;SDS011;58938;49.868;8.646;2023-12-07T02:07:16;18.55;;;9.25;;
71207;SDS011;58938;49.868;8.646;2023-12-07T02:09:43;16.55;;;9.25;;
71207;SDS011;58938;49.868;8.646;2023-12-07T02:12:08;20.80;;;9.07;;
71207;SDS011;58938;49.868;8.646;2023-12-07T02:14:34;18.35;;;9.50;;
71207;SDS011;58938;49.868;8.646;2023-12-07T02:17:08;18.95;;;8.75;;
71207;SDS011;58938;49.868;8.646;2023-12-07T02:19:57;19.52;;;9.13;;
71207;SDS011;58938;49.868;8.646;2023-12-07T02:22:33;18.53;;;8.53;;
71207;SDS011;58938;49.868;8.646;2023-12-07T02:25:07;18.13;;;9.85;;
71207;SDS011;58938;49.868;8.646;2023-12-07T02:27:36;16.10;;;9.57;;
71207;SDS011;58938;49.868;8.646;2023-12-07T02:30:03;15.25;;;8.32;;
71207;SDS011;58938;49.868;8.646;2023-12-07T02:32:29;17.67;;;8.80;;
71207;SDS011;58938;49.868;8.646;2023-12-07T02:34:55;12.77;;;7.37;;
71207;SDS011;58938;49.868;8.646;2023-12-07T02:37:21;19.27;;;8.52;;
71207;SDS011;58938;49.868;8.646;2023-12-07T02:39:48;17.85;;;9.50;;
71207;SDS011;58938;49.868;8.646;2023-12-07T02:42:14;21.15;;;9.05;;
71207;SDS011;58938;49.868;8.646;2023-12-07T02:44:41;17.65;;;8.90;;
71207;SDS011;58938;49.868;8.646;2023-12-07T02:47:07;17.07;;;8.57;;
71207;SDS011;58938;49.868;8.646;2023-12-07T02:49:33;16.70;;;8.80;;
71207;SDS011;58938;49.868;8.646;2023-12-07T02:51:59;17.40;;;8.65;;
71207;SDS011;58938;49.868;8.646;2023-12-07T02:54:25;16.17;;;8.43;;
71207;SDS011;58938;49.868;8.646;2023-12-07T02:56:51;14.75;;;8.85;;
71207;SDS011;58938;49.868;8.646;2023-12-07T02:59:17;13.13;;;7.32;;
71207;SDS011;58938;49.868;8.646;2023-12-07T03:01:43;16.95;;;7.68;;
71207;SDS011;58938;49.868;8.646;2023-12-07T03:04:09;14.90;;;7.72;;
71207;SDS011;58938;49.868;8.646;2023-12-07T03:06:35;18.83;;;8.20;;
71207;SDS011;58938;49.868;8.646;2023-12-07T03:09:01;18.17;;;9.18;;
71207;SDS011;58938;49.868;8.646;2023-12-07T03:11:28;17.15;;;8.70;;
71207;SDS011;58938;49.868;8.646;2023-12-07T03:13:54;17.88;;;8.40;;
71207;SDS011;58938;49.868;8.646;2023-12-07T03:16:20;14.17;;;8.07;;
71207;SDS011;58938;49.868;8.646;2023-12-07T03:18:46;16.95;;;8.55;;
71207;SDS011;58938;49.868;8.646;2023-12-07T03:21:11;14.57;;;7.22;;
71207;SDS011;58938;49.868;8.646;2023-12-07T03:23:37;16.00;;;9.03;;
71207;SDS011;58938;49.868;8.646;2023-12-07T03:26:03;17.90;;;8.85;;
71207;SDS011;58938;49.868;8.646;2023-12-07T03:28:29;15.05;;;8.02;;
71207;SDS011;58938;49.868;8.646;2023-12-07T03:30:55;18.48;;;8.32;;
71207;SDS011;58938;49.868;8.646;2023-12-07T03:33:21;18.17;;;8.67;;
71207;SDS011;58938;49.868;8.646;2023-12-07T03:35:47;18.42;;;8.82;;
71207;SDS011;58938;49.868;8.646;2023-12-07T03:38:14;14.05;;;7.82;;
71207;SDS011;58938;49.868;8.646;2023-12-07T03:40:40;15.45;;;8.02;;
71207;SDS011;58938;49.868;8.646;2023-12-07T03:43:06;15.65;;;8.23;;
71207;SDS011;58938;49.868;8.646;2023-12-07T03:45:32;22.23;;;8.27;;
71207;SDS011;58938;49.868;8.646;2023-12-07T03:47:58;15.20;;;8.10;;
71207;SDS011;58938;49.868;8.646;2023-12-07T03:50:23;16.08;;;8.57;;
71207;SDS011;58938;49.868;8.646;2023-12-07T03:52:49;20.27;;;9.13;;
71207;SDS011;58938;49.868;8.646;2023-12-07T03:55:15;18.42;;;8.77;;
71207;SDS011;58938;49.868;8.646;2023-12-07T03:57:41;15.25;;;8.10;;
71207;SDS011;58938;49.868;8.646;2023-12-07T04:00:10;15.52;;;8.00;;
71207;SDS011;58938;49.868;8.646;2023-12-07T04:02:36;15.82;;;8.05;;
71207;SDS011;58938;49.868;8.646;2023-12-07T04:05:02;20.85;;;7.75;;
71207;SDS011;58938;49.868;8.646;2023-12-07T04:07:28;14.65;;;7.80;;
71207;SDS011;58938;49.868;8.646;2023-12-07T04:09:54;19.98;;;8.00;;
71207;SDS011;58938;49.868;8.646;2023-12-07T04:12:22;17.47;;;7.90;;
71207;SDS011;58938;49.868;8.646;2023-12-07T04:14:49;18.05;;;8.27;;
71207;SDS011;58938;49.868;8.646;2023-12-07T04:17:16;19.13;;;8.50;;
71207;SDS011;58938;49.868;8.646;2023-12-07T04:19:42;18.52;;;8.73;;
71207;SDS011;58938;49.868;8.646;2023-12-07T04:22:08;18.80;;;8.97;;
71207;SDS011;58938;49.868;8.646;2023-12-07T04:24:34;17.08;;;9.50;;
71207;SDS011;58938;49.868;8.646;2023-12-07T04:27:00;16.73;;;8.57;;
71207;SDS011;58938;49.868;8.646;2023-12-07T04:29:27;22.65;;;8.40;;
71207;SDS011;58938;49.868;8.646;2023-12-07T04:31:53;22.00;;;9.37;;
71207;SDS011;58938;49.868;8.646;2023-12-07T04:34:19;19.73;;;9.30;;
71207;SDS011;58938;49.868;8.646;2023-12-07T04:36:45;23.73;;;10.32;;
71207;SDS011;58938;49.868;8.646;2023-12-07T04:39:11;21.23;;;10.23;;
71207;SDS011;58938;49.868;8.646;2023-12-07T04:41:37;17.43;;;8.77;;
71207;SDS011;58938;49.868;8.646;2023-12-07T04:44:03;21.70;;;9.52;;
71207;SDS011;58938;49.868;8.646;2023-12-07T04:46:29;18.88;;;9.02;;
71207;SDS011;58938;49.868;8.646;2023-12-07T04:48:55;18.00;;;9.50;;
71207;SDS011;58938;49.868;8.646;2023-12-07T04:51:21;24.87;;;9.17;;
71207;SDS011;58938;49.868;8.646;2023-12-07T04:53:47;21.90;;;9.40;;
71207;SDS011;58938;49.868;8.646;2023-12-07T04:56:13;21.38;;;10.27;;
71207;SDS011;58938;49.868;8.646;2023-12-07T04:58:39;20.02;;;9.63;;
71207;SDS011;58938;49.868;8.646;2023-12-07T05:01:05;22.47;;;10.20;;
71207;SDS011;58938;49.868;8.646;2023-12-07T05:03:31;20.73;;;9.38;;
71207;SDS011;58938;49.868;8.646;2023-12-07T05:05:57;20.40;;;10.00;;
71207;SDS011;58938;49.868;8.646;2023-12-07T05:08:23;21.92;;;9.15;;
71207;SDS011;58938;49.868;8.646;2023-12-07T05:10:49;22.80;;;10.90;;
71207;SDS011;58938;49.868;8.646;2023-12-07T05:13:16;23.05;;;10.55;;
71207;SDS011;58938;49.868;8.646;2023-12-07T05:15:42;21.98;;;10.23;;
71207;SDS011;58938;49.868;8.646;2023-12-07T05:18:08;21.10;;;10.35;;
71207;SDS011;58938;49.868;8.646;2023-12-07T05:20:34;22.98;;;11.48;;
71207;SDS011;58938;49.868;8.646;2023-12-07T05:23:04;23.80;;;10.80;;
71207;SDS011;58938;49.868;8.646;2023-12-07T05:25:30;20.63;;;11.02;;
71207;SDS011;58938;49.868;8.646;2023-12-07T05:27:56;23.15;;;10.80;;
71207;SDS011;58938;49.868;8.646;2023-12-07T05:30:22;21.00;;;11.30;;
71207;SDS011;58938;49.868;8.646;2023-12-07T05:32:48;21.13;;;11.93;;
71207;SDS011;58938;49.868;8.646;2023-12-07T05:35:15;26.08;;;11.70;;
71207;SDS011;58938;49.868;8.646;2023-12-07T05:37:41;25.20;;;10.93;;
71207;SDS011;58938;49.868;8.646;2023-12-07T05:40:07;20.10;;;10.85;;
71207;SDS011;58938;49.868;8.646;2023-12-07T05:42:34;23.42;;;12.70;;
71207;SDS011;58938;49.868;8.646;2023-12-07T05:45:00;22.33;;;11.57;;
71207;SDS011;58938;49.868;8.646;2023-12-07T05:47:26;27.08;;;11.23;;
71207;SDS011;58938;49.868;8.646;2023-12-07T05:49:52;26.00;;;12.40;;
71207;SDS011;58938;49.868;8.646;2023-12-07T05:52:18;21.90;;;11.85;;
71207;SDS011;58938;49.868;8.646;2023-12-07T05:54:44;26.30;;;12.87;;
71207;SDS011;58938;49.868;8.646;2023-12-07T05:57:12;25.13;;;11.07;;
71207;SDS011;58938;49.868;8.646;2023-12-07T05:59:38;23.70;;;13.25;;
71207;SDS011;58938;49.868;8.646;2023-12-07T06:02:05;27.77;;;12.05;;
71207;SDS011;58938;49.868;8.646;2023-12-07T06:04:30;27.88;;;12.35;;
71207;SDS011;58938;49.868;8.646;2023-12-07T06:06:56;24.70;;;12.18;;
71207;SDS011;58938;49.868;8.646;2023-12-07T06:09:22;27.15;;;11.93;;
71207;SDS011;58938;49.868;8.646;2023-12-07T06:11:48;30.95;;;13.10;;
71207;SDS011;58938;49.868;8.646;2023-12-07T06:14:14;25.53;;;12.37;;
71207;SDS011;58938;49.868;8.646;2023-12-07T06:16:40;24.27;;;12.18;;
71207;SDS011;58938;49.868;8.646;2023-12-07T06:19:06;27.42;;;12.93;;
71207;SDS011;58938;49.868;8.646;2023-12-07T06:21:32;28.25;;;12.60;;
71207;SDS011;58938;49.868;8.646;2023-12-07T06:23:58;28.53;;;12.17;;
71207;SDS011;58938;49.868;8.646;2023-12-07T06:26:25;24.90;;;12.70;;
71207;SDS011;58938;49.868;8.646;2023-12-07T06:28:51;27.50;;;13.20;;
71207;SDS011;58938;49.868;8.646;2023-12-07T06:31:17;26.05;;;13.25;;
71207;SDS011;58938;49.868;8.646;2023-12-07T06:33:46;28.40;;;13.63;;
71207;SDS011;58938;49.868;8.646;2023-12-07T06:36:19;28.77;;;13.23;;
71207;SDS011;58938;49.868;8.646;2023-12-07T06:38:46;25.05;;;11.88;;
71207;SDS011;58938;49.868;8.646;2023-12-07T06:41:12;25.17;;;12.70;;
71207;SDS011;58938;49.868;8.646;2023-12-07T06:43:38;26.90;;;12.73;;
71207;SDS011;58938;49.868;8.646;2023-12-07T06:46:04;27.00;;;12.38;;
71207;SDS011;58938;49.868;8.646;2023-12-07T06:48:31;28.27;;;13.13;;
71207;SDS011;58938;49.868;8.646;2023-12-07T06:50:57;28.92;;;12.13;;
71207;SDS011;58938;49.868;8.646;2023-12-07T06:53:23;25.90;;;13.55;;
71207;SDS011;58938;49.868;8.646;2023-12-07T06:55:49;31.02;;;13.10;;
71207;SDS011;58938;49.868;8.646;2023-12-07T06:58:15;28.13;;;12.60;;
71207;SDS011;58938;49.868;8.646;2023-12-07T07:00:41;29.67;;;12.55;;
71207;SDS011;58938;49.868;8.646;2023-12-07T07:03:07;27.08;;;13.60;;
71207;SDS011;58938;49.868;8.646;2023-12-07T07:05:33;29.88;;;13.70;;
71207;SDS011;58938;49.868;8.646;2023-12-07T07:07:59;29.08;;;12.18;;
71207;SDS011;58938;49.868;8.646;2023-12-07T07:10:25;27.00;;;12.50;;
71207;SDS011;58938;49.868;8.646;2023-12-07T07:12:51;27.88;;;12.80;;
71207;SDS011;58938;49.868;8.646;2023-12-07T07:15:17;28.07;;;13.53;;
71207;SDS011;58938;49.868;8.646;2023-12-07T07:17:43;29.08;;;12.88;;
71207;SDS011;58938;49.868;8.646;2023-12-07T07:20:09;32.67;;;14.10;;
71207;SDS011;58938;49.868;8.646;2023-12-07T07:22:35;28.55;;;12.68;;
71207;SDS011;58938;49.868;8.646;2023-12-07T07:25:01;27.83;;;12.37;;
71207;SDS011;58938;49.868;8.646;2023-12-07T07:27:27;31.10;;;12.75;;
71207;SDS011;58938;49.868;8.646;2023-12-07T07:29:53;29.52;;;13.70;;
71207;SDS011;58938;49.868;8.646;2023-12-07T07:32:19;26.25;;;12.75;;
71207;SDS011;58938;49.868;8.646;2023-12-07T07:34:45;36.17;;;15.03;;
71207;SDS011;58938;49.868;8.646;2023-12-07T07:37:11;27.50;;;13.23;;
71207;SDS011;58938;49.868;8.646;2023-12-07T07:39:37;29.98;;;15.20;;
71207;SDS011;58938;49.868;8.646;2023-12-07T07:42:03;31.08;;;14.10;;
71207;SDS011;58938;49.868;8.646;2023-12-07T07:44:30;30.97;;;12.60;;
71207;SDS011;58938;49.868;8.646;2023-12-07T07:46:56;27.75;;;12.32;;
71207;SDS011;58938;49.868;8.646;2023-12-07T07:49:22;28.33;;;13.90;;
71207;SDS011;58938;49.868;8.646;2023-12-07T07:51:48;31.35;;;14.63;;
71207;SDS011;58938;49.868;8.646;2023-12-07T07:54:16;29.73;;;12.80;;
71207;SDS011;58938;49.868;8.646;2023-12-07T07:56:42;25.98;;;13.18;;
71207;SDS011;58938;49.868;8.646;2023-12-07T07:59:08;32.50;;;14.93;;
71207;SDS011;58938;49.868;8.646;2023-12-07T08:01:35;30.88;;;14.40;;
71207;SDS011;58938;49.868;8.646;2023-12-07T08:04:01;33.30;;;15.30;;
71207;SDS011;58938;49.868;8.646;2023-12-07T08:06:27;33.08;;;13.98;;
71207;SDS011;58938;49.868;8.646;2023-12-07T08:08:53;32.03;;;14.70;;
71207;SDS011;58938;49.868;8.646;2023-12-07T08:11:19;28.58;;;13.43;;
71207;SDS011;58938;49.868;8.646;2023-12-07T08:13:45;34.20;;;15.07;;
71207;SDS011;58938;49.868;8.646;2023-12-07T08:16:11;30.45;;;14.50;;
71207;SDS011;58938;49.868;8.646;2023-12-07T08:18:36;29.58;;;14.82;;
71207;SDS011;58938;49.868;8.646;2023-12-07T08:21:03;34.03;;;14.63;;
71207;SDS011;58938;49.868;8.646;2023-12-07T08:23:29;32.53;;;14.63;;
71207;SDS011;58938;49.868;8.646;2023-12-07T08:25:55;30.30;;;14.77;;
71207;SDS011;58938;49.868;8.646;2023-12-07T08:28:22;32.28;;;15.00;;
71207;SDS011;58938;49.868;8.646;2023-12-07T08:30:48;35.10;;;15.15;;
71207;SDS011;58938;49.868;8.646;2023-12-07T08:33:14;34.72;;;15.18;;
71207;SDS011;58938;49.868;8.646;2023-12-07T08:35:40;30.02;;;14.65;;
71207;SDS011;58938;49.868;8.646;2023-12-07T08:38:06;32.25;;;15.15;;
71207;SDS011;58938;49.868;8.646;2023-12-07T08:40:32;34.85;;;14.02;;
71207;SDS011;58938;49.868;8.646;2023-12-07T08:42:58;31.77;;;14.83;;
71207;SDS011;58938;49.868;8.646;2023-12-07T08:45:24;35.13;;;15.15;;
71207;SDS011;58938;49.868;8.646;2023-12-07T08:47:50;34.13;;;15.93;;
71207;SDS011;58938;49.868;8.646;2023-12-07T08:50:16;34.63;;;15.10;;
71207;SDS011;58938;49.868;8.646;2023-12-07T08:52:42;30.67;;;12.97;;
71207;SDS011;58938;49.868;8.646;2023-12-07T08:55:07;33.30;;;15.13;;
71207;SDS011;58938;49.868;8.646;2023-12-07T08:57:33;34.17;;;15.50;;
71207;SDS011;58938;49.868;8.646;2023-12-07T08:59:59;35.60;;;14.65;;
71207;SDS011;58938;49.868;8.646;2023-12-07T09:02:25;34.17;;;15.93;;
71207;SDS011;58938;49.868;8.646;2023-12-07T09:04:51;39.38;;;16.08;;
71207;SDS011;58938;49.868;8.646;2023-12-07T09:07:17;34.92;;;15.75;;
71207;SDS011;58938;49.868;8.646;2023-12-07T09:09:43;36.95;;;15.20;;
71207;SDS011;58938;49.868;8.646;2023-12-07T09:12:12;34.63;;;17.30;;
71207;SDS011;58938;49.868;8.646;2023-12-07T09:14:38;32.60;;;15.43;;
71207;SDS011;58938;49.868;8.646;2023-12-07T09:17:04;40.65;;;16.80;;
71207;SDS011;58938;49.868;8.646;2023-12-07T09:19:30;32.90;;;15.70;;
71207;SDS011;58938;49.868;8.646;2023-12-07T09:21:57;34.95;;;16.73;;
71207;SDS011;58938;49.868;8.646;2023-12-07T09:24:23;39.60;;;16.73;;
71207;SDS011;58938;49.868;8.646;2023-12-07T09:26:49;33.40;;;15.70;;
71207;SDS011;58938;49.868;8.646;2023-12-07T09:29:15;37.42;;;15.02;;
71207;SDS011;58938;49.868;8.646;2023-12-07T09:31:41;33.88;;;16.23;;
71207;SDS011;58938;49.868;8.646;2023-12-07T09:34:07;32.90;;;16.47;;
71207;SDS011;58938;49.868;8.646;2023-12-07T09:36:33;37.80;;;17.70;;
71207;SDS011;58938;49.868;8.646;2023-12-07T09:38:59;43.10;;;17.55;;
71207;SDS011;58938;49.868;8.646;2023-12-07T09:41:26;35.97;;;16.60;;
71207;SDS011;58938;49.868;8.646;2023-12-07T09:43:52;38.70;;;17.50;;
71207;SDS011;58938;49.868;8.646;2023-12-07T09:46:19;32.80;;;15.95;;
71207;SDS011;58938;49.868;8.646;2023-12-07T09:48:44;34.67;;;15.30;;
71207;SDS011;58938;49.868;8.646;2023-12-07T09:51:17;33.75;;;16.45;;
71207;SDS011;58938;49.868;8.646;2023-12-07T09:53:43;32.72;;;15.52;;
71207;SDS011;58938;49.868;8.646;2023-12-07T09:56:10;37.07;;;18.13;;
71207;SDS011;58938;49.868;8.646;2023-12-07T09:58:39;39.17;;;18.90;;
71207;SDS011;58938;49.868;8.646;2023-12-07T10:01:05;41.60;;;17.35;;
71207;SDS011;58938;49.868;8.646;2023-12-07T10:03:31;39.65;;;17.70;;
71207;SDS011;58938;49.868;8.646;2023-12-07T10:05:58;36.75;;;16.52;;
71207;SDS011;58938;49.868;8.646;2023-12-07T10:13:32;39.97;;;16.95;;
71207;SDS011;58938;49.868;8.646;2023-12-07T10:18:34;36.50;;;15.80;;
71207;SDS011;58938;49.868;8.646;2023-12-07T10:21:00;38.88;;;16.27;;
71207;SDS011;58938;49.868;8.646;2023-12-07T10:23:27;41.40;;;17.42;;
71207;SDS011;58938;49.868;8.646;2023-12-07T10:25:56;37.00;;;17.15;;
71207;SDS011;58938;49.868;8.646;2023-12-07T10:28:24;40.78;;;17.73;;
71207;SDS011;58938;49.868;8.646;2023-12-07T10:30:50;39.63;;;17.47;;
71207;SDS011;58938;49.868;8.646;2023-12-07T10:33:16;37.17;;;15.80;;
71207;SDS011;58938;49.868;8.646;2023-12-07T10:35:42;32.17;;;14.32;;
71207;SDS011;58938;49.868;8.646;2023-12-07T10:38:09;35.90;;;15.60;;
71207;SDS011;58938;49.868;8.646;2023-12-07T10:40:35;35.97;;;15.85;;
71207;SDS011;58938;49.868;8.646;2023-12-07T10:43:02;35.63;;;15.18;;
71207;SDS011;58938;49.868;8.646;2023-12-07T10:45:30;36.33;;;16.60;;
71207;SDS011;58938;49.868;8.646;2023-12-07T10:48:06;38.38;;;16.08;;
71207;SDS011;58938;49.868;8.646;2023-12-07T10:50:51;34.78;;;15.45;;
71207;SDS011;58938;49.868;8.646;2023-12-07T10:53:26;36.83;;;14.43;;
71207;SDS011;58938;49.868;8.646;2023-12-07T10:55:53;32.75;;;13.27;;
71207;SDS011;58938;49.868;8.646;2023-12-07T10:58:21;33.78;;;15.63;;
71207;SDS011;58938;49.868;8.646;2023-12-07T11:00:50;39.50;;;14.85;;
71207;SDS011;58938;49.868;8.646;2023-12-07T11:03:17;39.58;;;14.60;;
71207;SDS011;58938;49.868;8.646;2023-12-07T11:05:46;37.65;;;15.52;;
71207;SDS011;58938;49.868;8.646;2023-12-07T11:08:36;39.42;;;16.20;;
71207;SDS011;58938;49.868;8.646;2023-12-07T11:11:01;35.97;;;16.48;;
71207;SDS011;58938;49.868;8.646;2023-12-07T11:13:32;37.03;;;15.68;;
71207;SDS011;58938;49.868;8.646;2023-12-07T11:16:00;38.08;;;15.15;;
71207;SDS011;58938;49.868;8.646;2023-12-07T11:18:26;36.53;;;16.38;;
71207;SDS011;58938;49.868;8.646;2023-12-07T11:20:53;39.63;;;16.10;;
71207;SDS011;58938;49.868;8.646;2023-12-07T11:23:20;34.55;;;15.32;;
71207;SDS011;58938;49.868;8.646;2023-12-07T11:25:46;37.85;;;15.50;;
71207;SDS011;58938;49.868;8.646;2023-12-07T11:28:13;38.50;;;16.10;;
71207;SDS011;58938;49.868;8.646;2023-12-07T11:30:41;39.50;;;16.00;;
71207;SDS011;58938;49.868;8.646;2023-12-07T11:33:08;40.08;;;15.65;;
71207;SDS011;58938;49.868;8.646;2023-12-07T11:38:20;39.60;;;16.52;;
71207;SDS011;58938;49.868;8.646;2023-12-07T11:40:46;41.83;;;14.43;;
71207;SDS011;58938;49.868;8.646;2023-12-07T11:43:16;41.92;;;16.20;;
71207;SDS011;58938;49.868;8.646;2023-12-07T11:45:48;48.13;;;19.75;;
71207;SDS011;58938;49.868;8.646;2023-12-07T11:48:15;43.55;;;15.77;;
71207;SDS011;58938;49.868;8.646;2023-12-07T11:50:55;48.78;;;16.65;;
71207;SDS011;58938;49.868;8.646;2023-12-07T11:53:22;45.73;;;16.20;;
71207;SDS011;58938;49.868;8.646;2023-12-07T11:55:52;41.00;;;15.07;;
71207;SDS011;58938;49.868;8.646;2023-12-07T11:58:18;41.65;;;15.07;;
71207;SDS011;58938;49.868;8.646;2023-12-07T12:00:45;48.85;;;15.65;;
71207;SDS011;58938;49.868;8.646;2023-12-07T12:03:12;45.05;;;15.95;;
71207;SDS011;58938;49.868;8.646;2023-12-07T12:05:38;42.33;;;16.30;;
71207;SDS011;58938;49.868;8.646;2023-12-07T12:08:05;38.90;;;14.93;;
71207;SDS011;58938;49.868;8.646;2023-12-07T12:10:31;44.88;;;16.38;;
71207;SDS011;58938;49.868;8.646;2023-12-07T12:13:00;42.28;;;16.35;;
71207;SDS011;58938;49.868;8.646;2023-12-07T12:15:27;43.13;;;14.98;;
71207;SDS011;58938;49.868;8.646;2023-12-07T12:17:55;51.85;;;16.08;;
71207;SDS011;58938;49.868;8.646;2023-12-07T12:20:21;40.00;;;15.88;;
71207;SDS011;58938;49.868;8.646;2023-12-07T12:22:47;39.90;;;15.52;;
71207;SDS011;58938;49.868;8.646;2023-12-07T12:25:13;47.58;;;16.48;;
71207;SDS011;58938;49.868;8.646;2023-12-07T12:27:40;43.30;;;16.23;;
71207;SDS011;58938;49.868;8.646;2023-12-07T12:30:06;45.45;;;16.48;;
71207;SDS011;58938;49.868;8.646;2023-12-07T12:32:45;40.63;;;16.60;;
71207;SDS011;58938;49.868;8.646;2023-12-07T12:35:11;40.08;;;15.65;;
71207;SDS011;58938;49.868;8.646;2023-12-07T12:37:44;39.35;;;16.23;;
71207;SDS011;58938;49.868;8.646;2023-12-07T12:40:10;50.47;;;17.10;;
71207;SDS011;58938;49.868;8.646;2023-12-07T12:42:42;47.10;;;16.38;;
71207;SDS011;58938;49.868;8.646;2023-12-07T12:45:09;44.47;;;16.33;;
71207;SDS011;58938;49.868;8.646;2023-12-07T12:47:39;50.28;;;18.58;;
71207;SDS011;58938;49.868;8.646;2023-12-07T12:50:05;43.80;;;16.10;;
71207;SDS011;58938;49.868;8.646;2023-12-07T12:52:31;44.23;;;18.33;;
71207;SDS011;58938;49.868;8.646;2023-12-07T12:54:58;50.55;;;18.30;;
71207;SDS011;58938;49.868;8.646;2023-12-07T12:57:24;44.78;;;17.92;;
71207;SDS011;58938;49.868;8.646;2023-12-07T12:59:50;49.88;;;18.17;;
71207;SDS011;58938;49.868;8.646;2023-12-07T13:02:16;60.33;;;18.63;;
71207;SDS011;58938;49.868;8.646;2023-12-07T13:04:43;54.77;;;20.57;;
71207;SDS011;58938;49.868;8.646;2023-12-07T13:07:10;55.88;;;20.55;;
71207;SDS011;58938;49.868;8.646;2023-12-07T13:09:37;59.22;;;19.42;;
71207;SDS011;58938;49.868;8.646;2023-12-07T13:12:03;52.42;;;19.52;;
71207;SDS011;58938;49.868;8.646;2023-12-07T13:14:29;57.95;;;20.40;;
71207;SDS011;58938;49.868;8.646;2023-12-07T13:16:55;55.83;;;19.60;;
71207;SDS011;58938;49.868;8.646;2023-12-07T13:19:21;59.80;;;20.08;;
71207;SDS011;58938;49.868;8.646;2023-12-07T13:21:47;59.15;;;21.27;;
71207;SDS011;58938;49.868;8.646;2023-12-07T13:24:13;63.22;;;19.92;;
71207;SDS011;58938;49.868;8.646;2023-12-07T13:26:39;54.80;;;18.05;;
71207;SDS011;58938;49.868;8.646;2023-12-07T13:29:06;53.80;;;17.58;;
71207;SDS011;58938;49.868;8.646;2023-12-07T13:31:32;49.10;;;17.42;;
71207;SDS011;58938;49.868;8.646;2023-12-07T13:33:59;52.10;;;19.13;;
71207;SDS011;58938;49.868;8.646;2023-12-07T13:36:26;49.00;;;17.83;;
71207;SDS011;58938;49.868;8.646;2023-12-07T13:38:54;54.83;;;17.92;;
71207;SDS011;58938;49.868;8.646;2023-12-07T13:41:20;53.22;;;18.25;;
71207;SDS011;58938;49.868;8.646;2023-12-07T13:43:47;52.25;;;19.63;;
71207;SDS011;58938;49.868;8.646;2023-12-07T13:46:16;54.60;;;20.50;;
71207;SDS011;58938;49.868;8.646;2023-12-07T13:48:42;52.17;;;18.88;;
71207;SDS011;58938;49.868;8.646;2023-12-07T13:51:08;48.80;;;17.38;;
71207;SDS011;58938;49.868;8.646;2023-12-07T13:53:35;50.13;;;17.27;;
71207;SDS011;58938;49.868;8.646;2023-12-07T13:56:01;48.55;;;17.25;;
71207;SDS011;58938;49.868;8.646;2023-12-07T13:58:29;48.72;;;16.92;;
71207;SDS011;58938;49.868;8.646;2023-12-07T14:00:55;50.00;;;17.40;;
71207;SDS011;58938;49.868;8.646;2023-12-07T14:03:21;46.83;;;18.07;;
71207;SDS011;58938;49.868;8.646;2023-12-07T14:05:48;50.58;;;17.75;;
71207;SDS011;58938;49.868;8.646;2023-12-07T14:08:14;46.58;;;19.23;;
71207;SDS011;58938;49.868;8.646;2023-12-07T14:10:40;49.60;;;17.88;;
71207;SDS011;58938;49.868;8.646;2023-12-07T14:13:05;53.25;;;17.77;;
71207;SDS011;58938;49.868;8.646;2023-12-07T14:15:32;47.23;;;16.57;;
71207;SDS011;58938;49.868;8.646;2023-12-07T14:18:00;45.75;;;17.38;;
71207;SDS011;58938;49.868;8.646;2023-12-07T14:20:26;43.42;;;16.20;;
71207;SDS011;58938;49.868;8.646;2023-12-07T14:22:53;44.88;;;17.05;;
71207;SDS011;58938;49.868;8.646;2023-12-07T14:25:19;47.97;;;17.60;;
71207;SDS011;58938;49.868;8.646;2023-12-07T14:27:45;38.83;;;15.70;;
71207;SDS011;58938;49.868;8.646;2023-12-07T14:30:11;47.83;;;16.67;;
71207;SDS011;58938;49.868;8.646;2023-12-07T14:32:37;42.08;;;16.17;;